Climatologie pour Saint-Brevin les Pins
Jour • Résumé pour janvier 4, 2017 Système :  Métrique    Anglais   Mixte
« - 1 jour
+ 1 jour »
Jour Semaine Mois Année Personnalisé
  Maximum : Minimum : Moyenne :
Température sous abri : -17.8 °C -19.3 °C -16.5 °C
Point de rosée : -17.8 °C -19.4 °C -17.1 °C
Humidité : Humidity % 83 % 93 %
Vitesse du vent : 0 km/h 0 km/h 3.1 km/h
Rafale : 0 km/h - -
Direction :- - SW
Pression : 0 hPa 34808.1 hPa -
Précipitations : 0 mm    
Historical Graphs
 
 
Tableau de données pour janvier 4, 2017
Heure Tempé Pt rosée Pression Vent Vitesse Rafale Humidité Taux pluie (/hr) Soleil
-17.8 °C -17.8 °C 0 hPa Calm     Humidity % 0 mm SolarRadiationWatts/m^2 W/m2 Conditions
00:00 -18.1 °C -18.3 °C 34899.5 hPa ENE 10.3 km/h 20.8 km/h 97 % 0 mm 0 W/m2
00:05 -18.1 °C -18.3 °C 34899.5 hPa ENE 7.7 km/h 20.8 km/h 97 % 0 mm 0 W/m2
00:10 -18.1 °C -18.3 °C 34899.5 hPa East 7.7 km/h 18.2 km/h 97 % 0 mm 0 W/m2
00:15 -18.1 °C -18.3 °C 34899.5 hPa East 12.9 km/h 18.2 km/h 97 % 0 mm 0 W/m2
00:20 -18.2 °C -18.4 °C 34899.5 hPa ENE 2.6 km/h 20.8 km/h 97 % 0 mm 0 W/m2
00:25 -18.1 °C -18.3 °C 34909.7 hPa ENE 10.3 km/h 23.3 km/h 97 % 0 mm 0 W/m2
00:30 -18.2 °C -18.4 °C 34909.7 hPa ENE 5.1 km/h 23.3 km/h 97 % 0 mm 0 W/m2
00:35 -18.2 °C -18.4 °C 34909.7 hPa NE 7.7 km/h 20.8 km/h 97 % 0 mm 0 W/m2
00:40 -18.2 °C -18.4 °C 34899.5 hPa Calm   12.9 km/h 97 % 0 mm 0 W/m2
00:45 -18.2 °C -18.4 °C 34899.5 hPa ENE 7.7 km/h 12.9 km/h 97 % 0 mm 0 W/m2
00:50 -18.2 °C -18.4 °C 34899.5 hPa East 7.7 km/h 18.2 km/h 97 % 0 mm 0 W/m2
00:55 -18.2 °C -18.4 °C 34899.5 hPa East 12.9 km/h 18.2 km/h 97 % 0 mm 0 W/m2
01:00 -18.2 °C -18.4 °C 34899.5 hPa ENE 5.1 km/h 18.2 km/h 97 % 0 mm 0 W/m2
01:05 -18.2 °C -18.4 °C 34899.5 hPa ENE 2.6 km/h 18.2 km/h 97 % 0 mm 0 W/m2
01:10 -18.2 °C -18.3 °C 34899.5 hPa Calm   7.7 km/h 98 % 0 mm 0 W/m2
01:15 -18.2 °C -18.3 °C 34899.5 hPa East 12.9 km/h 12.9 km/h 98 % 0 mm 0 W/m2
01:20 -18.2 °C -18.3 °C 34899.5 hPa East 5.1 km/h 12.9 km/h 98 % 0 mm 0 W/m2
01:25 -18.2 °C -18.3 °C 34889.3 hPa NE 5.1 km/h 12.9 km/h 98 % 0 mm 0 W/m2
01:30 -18.2 °C -18.4 °C 34889.3 hPa NE 5.1 km/h 18.2 km/h 98 % 0 mm 0 W/m2
01:35 -18.3 °C -18.4 °C 34889.3 hPa NE 2.6 km/h 18.2 km/h 98 % 0 mm 0 W/m2
01:40 -18.3 °C -18.4 °C 34875.8 hPa Calm   18.2 km/h 98 % 0 mm 0 W/m2
01:45 -18.2 °C -18.4 °C 34875.8 hPa Calm   10.3 km/h 98 % 0 mm 0 W/m2
01:50 -18.2 °C -18.4 °C 34875.8 hPa Calm   10.3 km/h 98 % 0 mm 0 W/m2
01:55 -18.2 °C -18.4 °C 34875.8 hPa Calm   10.3 km/h 98 % 0 mm 0 W/m2
02:00 -18.2 °C -18.4 °C 34875.8 hPa East 5.1 km/h 10.3 km/h 98 % 0 mm 0 W/m2
02:05 -18.2 °C -18.4 °C 34875.8 hPa East 2.6 km/h 7.7 km/h 98 % 0 mm 0 W/m2
02:10 -18.3 °C -18.4 °C 34875.8 hPa East 2.6 km/h 7.7 km/h 98 % 0 mm 0 W/m2
02:15 -18.3 °C -18.4 °C 34875.8 hPa Calm   7.7 km/h 98 % 0 mm 0 W/m2
02:20 -18.3 °C -18.5 °C 34875.8 hPa East 7.7 km/h 7.7 km/h 98 % 0 mm 0 W/m2
02:25 -18.4 °C -18.5 °C 34875.8 hPa East 5.1 km/h 7.7 km/h 98 % 0 mm 0 W/m2
02:30 -18.4 °C -18.6 °C 34875.8 hPa Calm   7.7 km/h 98 % 0 mm 0 W/m2
02:35 -18.4 °C -18.5 °C 34875.8 hPa Calm   7.7 km/h 98 % 0 mm 0 W/m2
02:40 -18.4 °C -18.5 °C 34875.8 hPa East 7.7 km/h 7.7 km/h 98 % 0 mm 0 W/m2
02:45 -18.4 °C -18.6 °C 34875.8 hPa NE 2.6 km/h 10.3 km/h 98 % 0 mm 0 W/m2
02:50 -18.4 °C -18.6 °C 34875.8 hPa NE 5.1 km/h 10.3 km/h 98 % 0 mm 0 W/m2
02:55 -18.5 °C -18.7 °C 34875.8 hPa ENE 7.7 km/h 10.3 km/h 98 % 0 mm 0 W/m2
03:00 -18.5 °C -18.7 °C 34875.8 hPa NNE 5.1 km/h 12.9 km/h 98 % 0 mm 0 W/m2
03:05 -18.6 °C -18.7 °C 34875.8 hPa ENE 12.9 km/h 18.2 km/h 98 % 0 mm 0 W/m2
03:10 -18.6 °C -18.7 °C 34875.8 hPa ENE 5.1 km/h 18.2 km/h 98 % 0 mm 0 W/m2
03:15 -18.6 °C -18.7 °C 34875.8 hPa Calm   18.2 km/h 98 % 0 mm 0 W/m2
03:20 -18.6 °C -18.7 °C 34875.8 hPa NNE 5.1 km/h 20.8 km/h 98 % 0 mm 0 W/m2
03:25 -18.6 °C -18.7 °C 34875.8 hPa East 2.6 km/h 20.8 km/h 98 % 0 mm 0 W/m2
03:30 -18.5 °C -18.7 °C 34875.8 hPa East 7.7 km/h 15.6 km/h 98 % 0 mm 0 W/m2
03:35 -18.6 °C -18.7 °C 34875.8 hPa East 5.1 km/h 15.6 km/h 98 % 0 mm 0 W/m2
03:45 -18.6 °C -18.7 °C 34875.8 hPa ENE 5.1 km/h 18.2 km/h 98 % 0 mm 0 W/m2
03:50 -18.6 °C -18.7 °C 34875.8 hPa Calm   18.2 km/h 98 % 0 mm 0 W/m2
03:55 -18.5 °C -18.7 °C 34875.8 hPa ENE 2.6 km/h 7.7 km/h 98 % 0 mm 0 W/m2
04:00 -18.5 °C -18.7 °C 34875.8 hPa ENE 2.6 km/h 7.7 km/h 98 % 0 mm 0 W/m2
04:05 -18.5 °C -18.7 °C 34875.8 hPa East 12.9 km/h 15.6 km/h 98 % 0 mm 0 W/m2
04:10 -18.6 °C -18.7 °C 34875.8 hPa East 5.1 km/h 15.6 km/h 98 % 0 mm 0 W/m2
04:15 -18.6 °C -18.7 °C 34865.6 hPa ESE 2.6 km/h 15.6 km/h 98 % 0 mm 0 W/m2
04:20 -18.6 °C -18.8 °C 34865.6 hPa ENE 2.6 km/h 10.3 km/h 98 % 0 mm 0 W/m2
04:30 -18.7 °C -18.8 °C 34865.6 hPa East 5.1 km/h 7.7 km/h 98 % 0 mm 0 W/m2
04:35 -18.7 °C -18.8 °C 34865.6 hPa East 2.6 km/h 7.7 km/h 98 % 0 mm 0 W/m2
04:40 -18.7 °C -18.8 °C 34865.6 hPa Calm   7.7 km/h 98 % 0 mm 0 W/m2
04:45 -18.7 °C -18.9 °C 34865.6 hPa Calm   12.9 km/h 98 % 0 mm 0 W/m2
04:50 -18.8 °C -18.9 °C 34875.8 hPa East 5.1 km/h 12.9 km/h 98 % 0 mm 0 W/m2
04:55 -18.8 °C -19 °C 34865.6 hPa East 2.6 km/h 7.7 km/h 98 % 0 mm 0 W/m2
05:00 -18.8 °C -19 °C 34865.6 hPa Calm   7.7 km/h 98 % 0 mm 0 W/m2
05:05 -18.8 °C -19 °C 34875.8 hPa East 5.1 km/h 7.7 km/h 98 % 0 mm 0 W/m2
05:10 -18.8 °C -19 °C 34875.8 hPa ENE 2.6 km/h 7.7 km/h 98 % 0 mm 0 W/m2
05:15 -18.9 °C -19.1 °C 34865.6 hPa ENE 2.6 km/h 10.3 km/h 98 % 0 mm 0 W/m2
05:20 -18.8 °C -19 °C 34865.6 hPa Calm   10.3 km/h 98 % 0 mm 0 W/m2
05:25 -18.9 °C -19.1 °C 34865.6 hPa Calm   7.7 km/h 98 % 0 mm 0 W/m2
05:30 -18.8 °C -19 °C 34865.6 hPa Calm   5.1 km/h 98 % 0 mm 0 W/m2
05:35 -18.8 °C -19 °C 34865.6 hPa NNE 2.6 km/h 5.1 km/h 98 % 0 mm 0 W/m2
05:40 -18.9 °C -19.1 °C 34865.6 hPa Calm   7.7 km/h 98 % 0 mm 0 W/m2
05:45 -19 °C -19.2 °C 34865.6 hPa Calm   7.7 km/h 98 % 0 mm 0 W/m2
05:50 -19 °C -19.1 °C 34865.6 hPa Calm   7.7 km/h 98 % 0 mm 0 W/m2
05:55 -19 °C -19.2 °C 34865.6 hPa Calm   7.7 km/h 98 % 0 mm 0 W/m2
06:00 -19 °C -19.2 °C 34865.6 hPa Calm   5.1 km/h 98 % 0 mm 0 W/m2
06:05 -19.1 °C -19.2 °C 34852.1 hPa Calm   2.6 km/h 98 % 0 mm 0 W/m2
06:10 -19.1 °C -19.2 °C 34852.1 hPa Calm   2.6 km/h 98 % 0 mm 0 W/m2
06:15 -19.1 °C -19.3 °C 34841.9 hPa Calm   2.6 km/h 98 % 0 mm 0 W/m2
06:25 -19.2 °C -19.3 °C 34841.9 hPa Calm     98 % 0 mm 0 W/m2
06:30 -19.2 °C -19.3 °C 34841.9 hPa Calm   2.6 km/h 98 % 0 mm 0 W/m2
06:35 -19.2 °C -19.3 °C 34841.9 hPa ESE 5.1 km/h 7.7 km/h 98 % 0 mm 0 W/m2
06:40 -19.3 °C -19.4 °C 34841.9 hPa South 5.1 km/h 10.3 km/h 98 % 0 mm 0 W/m2
06:45 -19.3 °C -19.4 °C 34841.9 hPa South 5.1 km/h 10.3 km/h 98 % 0 mm 0 W/m2
06:50 -19.3 °C -19.4 °C 34841.9 hPa Calm   7.7 km/h 98 % 0 mm 0 W/m2
06:55 -19.3 °C -19.4 °C 34841.9 hPa East 7.7 km/h 7.7 km/h 98 % 0 mm 0 W/m2
07:00 -19.2 °C -19.4 °C 34852.1 hPa NE 2.6 km/h 10.3 km/h 98 % 0 mm 0 W/m2
07:05 -19.2 °C -19.3 °C 34852.1 hPa NE 7.7 km/h 10.3 km/h 98 % 0 mm 0 W/m2
07:10 -19.2 °C -19.3 °C 34841.9 hPa NE 2.6 km/h 7.7 km/h 98 % 0 mm 0 W/m2
07:15 -19.1 °C -19.3 °C 34852.1 hPa Calm   7.7 km/h 98 % 0 mm 0 W/m2
07:20 -19.1 °C -19.3 °C 34841.9 hPa Calm   5.1 km/h 98 % 0 mm 0 W/m2
07:25 -19.1 °C -19.2 °C 34841.9 hPa Calm     98 % 0 mm 0 W/m2
07:30 -19 °C -19.2 °C 34841.9 hPa Calm     98 % 0 mm 0 W/m2
07:35 -18.9 °C -19.1 °C 34841.9 hPa Calm   2.6 km/h 98 % 0 mm 0 W/m2
07:40 -18.9 °C -19.1 °C 34841.9 hPa Calm   2.6 km/h 98 % 0 mm 0 W/m2
07:45 -18.9 °C -19.1 °C 34841.9 hPa Calm   2.6 km/h 98 % 0 mm 0 W/m2
07:50 -18.9 °C -19.1 °C 34852.1 hPa NE 2.6 km/h 7.7 km/h 98 % 0 mm 0 W/m2
07:55 -18.9 °C -19.1 °C 34852.1 hPa Calm   7.7 km/h 98 % 0 mm 0 W/m2
08:00 -18.9 °C -19.1 °C 34852.1 hPa Calm   5.1 km/h 98 % 0 mm 0 W/m2
08:05 -18.9 °C -19.1 °C 34852.1 hPa Calm   5.1 km/h 98 % 0 mm 0 W/m2
08:10 -18.9 °C -19.1 °C 34852.1 hPa Calm     98 % 0 mm 0 W/m2
08:15 -18.9 °C -19.1 °C 34852.1 hPa Calm     98 % 0 mm 0 W/m2
08:20 -19 °C -19.1 °C 34852.1 hPa Calm     98 % 0 mm 0 W/m2
08:25 -19 °C -19.2 °C 34852.1 hPa Calm     98 % 0 mm 0 W/m2
08:30 -19.1 °C -19.2 °C 34852.1 hPa Calm   2.6 km/h 98 % 0 mm 0 W/m2
08:35 -19.1 °C -19.2 °C 34852.1 hPa NE 2.6 km/h 2.6 km/h 98 % 0 mm 0 W/m2
08:40 -19.1 °C -19.2 °C 34852.1 hPa Calm   5.1 km/h 98 % 0 mm 0 W/m2
08:45 -19 °C -19.2 °C 34852.1 hPa Calm   5.1 km/h 98 % 0 mm 0 W/m2
08:50 -19 °C -19.2 °C 34852.1 hPa Calm   2.6 km/h 98 % 0 mm 0 W/m2
08:55 -19 °C -19.1 °C 34852.1 hPa Calm   2.6 km/h 98 % 0 mm 0 W/m2
09:00 -19 °C -19.1 °C 34852.1 hPa Calm     98 % 0 mm 5 W/m2
09:05 -19 °C -19.1 °C 34852.1 hPa Calm     98 % 0 mm 7 W/m2
09:10 -19 °C -19.1 °C 34852.1 hPa Calm   2.6 km/h 98 % 0 mm 9 W/m2
09:15 -19 °C -19.1 °C 34852.1 hPa Calm   2.6 km/h 98 % 0 mm 11 W/m2
09:20 -19 °C -19.2 °C 34852.1 hPa Calm   2.6 km/h 98 % 0 mm 16 W/m2
09:25 -19 °C -19.2 °C 34852.1 hPa Calm   2.6 km/h 98 % 0 mm 18 W/m2
09:30 -19.1 °C -19.2 °C 34852.1 hPa Calm     98 % 0 mm 23 W/m2
09:35 -19.1 °C -19.2 °C 34852.1 hPa West 2.6 km/h 7.7 km/h 98 % 0 mm 30 W/m2
09:40 -19.2 °C -19.3 °C 34852.1 hPa WSW 2.6 km/h 7.7 km/h 98 % 0 mm 35 W/m2
09:45 -19.2 °C -19.3 °C 34852.1 hPa Calm   7.7 km/h 98 % 0 mm 35 W/m2
09:50 -19.2 °C -19.3 °C 34852.1 hPa Calm   5.1 km/h 98 % 0 mm 42 W/m2
09:55 -19.2 °C -19.3 °C 34865.6 hPa Calm   2.6 km/h 98 % 0 mm 47 W/m2
10:00 -19.2 °C -19.3 °C 34852.1 hPa Calm   2.6 km/h 98 % 0 mm 51 W/m2
10:05 -19.1 °C -19.3 °C 34852.1 hPa Calm   2.6 km/h 98 % 0 mm 54 W/m2
10:10 -19.1 °C -19.2 °C 34865.6 hPa Calm   2.6 km/h 98 % 0 mm 79 W/m2
10:15 -19 °C -19.1 °C 34865.6 hPa Calm   2.6 km/h 98 % 0 mm 39 W/m2
10:20 -18.9 °C -19.1 °C 34852.1 hPa WSW 2.6 km/h 5.1 km/h 98 % 0 mm 40 W/m2
10:25 -18.8 °C -19 °C 34852.1 hPa WSW 5.1 km/h 5.1 km/h 98 % 0 mm 44 W/m2
10:30 -18.8 °C -18.9 °C 34865.6 hPa WSW 5.1 km/h 5.1 km/h 98 % 0 mm 127 W/m2
10:35 -18.7 °C -18.8 °C 34852.1 hPa WSW 2.6 km/h 5.1 km/h 98 % 0 mm 148 W/m2
10:45 -18.6 °C -18.7 °C 34865.6 hPa Calm   2.6 km/h 98 % 0 mm 158 W/m2
10:50 -18.5 °C -18.7 °C 34865.6 hPa Calm   2.6 km/h 98 % 0 mm 158 W/m2
10:55 -18.4 °C -18.6 °C 34865.6 hPa Calm   2.6 km/h 98 % 0 mm 172 W/m2
11:00 -18.2 °C -18.4 °C 34865.6 hPa Calm     98 % 0 mm 183 W/m2
11:05 -18.2 °C -18.3 °C 34865.6 hPa Calm     98 % 0 mm 192 W/m2
11:10 -18 °C -18.2 °C 34865.6 hPa Calm     98 % 0 mm 200 W/m2
11:15 -17.8 °C -17.9 °C 34865.6 hPa Calm     98 % 0 mm 207 W/m2
11:20 -17.6 °C -17.7 °C 34865.6 hPa Calm   2.6 km/h 98 % 0 mm 214 W/m2
11:25 -17.4 °C -17.4 °C 34865.6 hPa WSW 2.6 km/h 5.1 km/h 99 % 0 mm 223 W/m2
11:30 -17.3 °C -17.3 °C 34865.6 hPa Calm   5.1 km/h 99 % 0 mm 232 W/m2
11:35 -17.1 °C -17.2 °C 34865.6 hPa Calm   5.1 km/h 99 % 0 mm 237 W/m2
11:40 -17 °C -17.1 °C 34875.8 hPa WSW 2.6 km/h 5.1 km/h 99 % 0 mm 243 W/m2
11:50 -16.6 °C -16.7 °C 34865.6 hPa Calm   2.6 km/h 99 % 0 mm 257 W/m2
11:55 -16.6 °C -16.7 °C 34865.6 hPa WSW 2.6 km/h 2.6 km/h 99 % 0 mm 269 W/m2
12:00 -16.4 °C -16.6 °C 34865.6 hPa Calm   2.6 km/h 99 % 0 mm 243 W/m2
12:05 -16.4 °C -16.4 °C 34865.6 hPa Calm   2.6 km/h 99 % 0 mm 179 W/m2
12:10 -16.3 °C -16.4 °C 34865.6 hPa Calm   2.6 km/h 98 % 0 mm 193 W/m2
12:15 -16.1 °C -16.2 °C 34865.6 hPa Calm   2.6 km/h 99 % 0 mm 176 W/m2
12:20 -16 °C -16.1 °C 34865.6 hPa WSW 5.1 km/h 7.7 km/h 99 % 0 mm 190 W/m2
12:25 -15.8 °C -15.9 °C 34865.6 hPa WSW 2.6 km/h 7.7 km/h 99 % 0 mm 167 W/m2
12:30 -15.7 °C -15.7 °C 34865.6 hPa Calm   10.3 km/h 99 % 0 mm 211 W/m2
12:35 -15.4 °C -15.6 °C 34852.1 hPa WSW 2.6 km/h 10.3 km/h 98 % 0 mm 158 W/m2
12:40 -15.3 °C -15.5 °C 34852.1 hPa WSW 7.7 km/h 7.7 km/h 98 % 0 mm 211 W/m2
12:50 -15.1 °C -15.3 °C 34852.1 hPa Calm   7.7 km/h 98 % 0 mm 156 W/m2
12:55 -15.1 °C -15.3 °C 34852.1 hPa WSW 2.6 km/h 7.7 km/h 98 % 0 mm 158 W/m2
13:00 -15.1 °C -15.3 °C 34852.1 hPa Calm   7.7 km/h 97 % 0 mm 153 W/m2
13:05 -14.9 °C -15.2 °C 34852.1 hPa WSW 7.7 km/h 10.3 km/h 97 % 0 mm 162 W/m2
13:10 -14.9 °C -15.3 °C 34852.1 hPa WSW 2.6 km/h 10.3 km/h 96 % 0 mm 167 W/m2
13:15 -14.8 °C -15.2 °C 34852.1 hPa Calm   7.7 km/h 96 % 0 mm 163 W/m2
13:20 -14.8 °C -15.2 °C 34841.9 hPa Calm   7.7 km/h 95 % 0 mm 185 W/m2
13:25 -14.7 °C -15.2 °C 34841.9 hPa Calm   7.7 km/h 94 % 0 mm 169 W/m2
13:30 -14.7 °C -15.2 °C 34841.9 hPa Calm   7.7 km/h 94 % 0 mm 162 W/m2
13:35 -14.6 °C -15.2 °C 34841.9 hPa WSW 7.7 km/h 10.3 km/h 93 % 0 mm 183 W/m2
13:40 -14.6 °C -15.3 °C 34841.9 hPa WSW 2.6 km/h 10.3 km/h 92 % 0 mm 185 W/m2
13:45 -14.4 °C -15.1 °C 34831.8 hPa Calm   7.7 km/h 92 % 0 mm 195 W/m2
13:50 -14.3 °C -15.1 °C 34831.8 hPa Calm   5.1 km/h 91 % 0 mm 185 W/m2
13:55 -14.2 °C -14.9 °C 34831.8 hPa Calm   2.6 km/h 91 % 0 mm 176 W/m2
14:00 -14.1 °C -15 °C 34831.8 hPa Calm   7.7 km/h 90 % 0 mm 193 W/m2
14:05 -14.1 °C -15.1 °C 34818.2 hPa Calm   10.3 km/h 89 % 0 mm 213 W/m2
14:10 -14.1 °C -15.2 °C 34831.8 hPa Calm   10.3 km/h 87 % 0 mm 179 W/m2
14:15 -14 °C -15.1 °C 34831.8 hPa NW 2.6 km/h 10.3 km/h 87 % 0 mm 202 W/m2
14:20 -13.9 °C -15.1 °C 34818.2 hPa WNW 10.3 km/h 10.3 km/h 86 % 0 mm 185 W/m2
14:25 -13.9 °C -15.1 °C 34818.2 hPa WNW 2.6 km/h 10.3 km/h 86 % 0 mm 174 W/m2
14:30 -13.8 °C -15.2 °C 34818.2 hPa NW 10.3 km/h 12.9 km/h 85 % 0 mm 144 W/m2
14:40 -13.9 °C -15.3 °C 34818.2 hPa Calm   10.3 km/h 85 % 0 mm 262 W/m2
14:45 -13.7 °C -14.9 °C 34808.1 hPa WNW 5.1 km/h 10.3 km/h 86 % 0 mm 185 W/m2
14:50 -13.7 °C -15.1 °C 34808.1 hPa WSW 7.7 km/h 15.6 km/h 84 % 0 mm 176 W/m2
14:55 -13.7 °C -15.1 °C 34808.1 hPa WSW 2.6 km/h 15.6 km/h 84 % 0 mm 153 W/m2
15:00 -13.7 °C -15.1 °C 34808.1 hPa WNW 7.7 km/h 12.9 km/h 85 % 0 mm 156 W/m2
15:05 -13.7 °C -15 °C 34808.1 hPa West 7.7 km/h 12.9 km/h 85 % 0 mm 134 W/m2
15:10 -13.7 °C -15.1 °C 34808.1 hPa WNW 7.7 km/h 15.6 km/h 84 % 0 mm 105 W/m2
15:15 -13.7 °C -15 °C 34808.1 hPa West 7.7 km/h 15.6 km/h 85 % 0 mm 97 W/m2
15:20 -13.7 °C -15.2 °C 34808.1 hPa WNW 2.6 km/h 15.6 km/h 83 % 0 mm 104 W/m2
15:25 -13.6 °C -15.1 °C 34808.1 hPa WNW 10.3 km/h 15.6 km/h 83 % 0 mm 88 W/m2
15:30 -13.6 °C -15 °C 34808.1 hPa NW 5.1 km/h 12.9 km/h 84 % 0 mm 81 W/m2
15:35 -13.6 °C -15.1 °C 34808.1 hPa WNW 7.7 km/h 12.9 km/h 83 % 0 mm 76 W/m2
15:40 -13.6 °C -14.9 °C 34808.1 hPa WNW 2.6 km/h 12.9 km/h 84 % 0 mm 74 W/m2
15:45 -13.6 °C -15 °C 34808.1 hPa WNW 7.7 km/h 7.7 km/h 84 % 0 mm 69 W/m2
15:50 -13.6 °C -15 °C 34808.1 hPa WNW 5.1 km/h 10.3 km/h 84 % 0 mm 67 W/m2
15:55 -13.6 °C -15 °C 34808.1 hPa WNW 7.7 km/h 12.9 km/h 84 % 0 mm 65 W/m2
16:00 -13.6 °C -14.9 °C 34808.1 hPa WNW 2.6 km/h 12.9 km/h 85 % 0 mm 62 W/m2
16:05 -13.7 °C -14.9 °C 34818.2 hPa NW 7.7 km/h 10.3 km/h 85 % 0 mm 51 W/m2
16:10 -13.7 °C -15 °C 34808.1 hPa NW 5.1 km/h 10.3 km/h 85 % 0 mm 47 W/m2
16:15 -13.7 °C -15.1 °C 34808.1 hPa NW 2.6 km/h 10.3 km/h 84 % 0 mm 46 W/m2
16:20 -13.7 °C -14.9 °C 34808.1 hPa NW 5.1 km/h 10.3 km/h 86 % 0 mm 39 W/m2
16:25 -13.7 °C -14.9 °C 34818.2 hPa NW 2.6 km/h 10.3 km/h 86 % 0 mm 33 W/m2
16:30 -13.8 °C -15 °C 34808.1 hPa WNW 5.1 km/h 12.9 km/h 86 % 0 mm 33 W/m2
16:35 -13.8 °C -15.1 °C 34808.1 hPa WNW 2.6 km/h 12.9 km/h 86 % 0 mm 30 W/m2
16:40 -13.8 °C -15 °C 34808.1 hPa Calm   12.9 km/h 87 % 0 mm 26 W/m2
16:45 -13.9 °C -15 °C 34808.1 hPa Calm   10.3 km/h 87 % 0 mm 23 W/m2
16:50 -13.9 °C -15 °C 34808.1 hPa WNW 2.6 km/h 10.3 km/h 88 % 0 mm 18 W/m2
16:55 -14 °C -15 °C 34808.1 hPa Calm   12.9 km/h 88 % 0 mm 14 W/m2
17:00 -14 °C -15.1 °C 34808.1 hPa Calm   12.9 km/h 87 % 0 mm 14 W/m2
17:05 -14.1 °C -15.1 °C 34818.2 hPa NW 5.1 km/h 10.3 km/h 88 % 0 mm 11 W/m2
17:10 -14.1 °C -15.1 °C 34818.2 hPa Calm   10.3 km/h 88 % 0 mm 7 W/m2
17:15 -14.1 °C -15.1 °C 34818.2 hPa Calm   10.3 km/h 88 % 0 mm 5 W/m2
17:20 -14.2 °C -15.1 °C 34818.2 hPa NW 2.6 km/h 7.7 km/h 89 % 0 mm 0 W/m2
17:25 -14.2 °C -15.2 °C 34831.8 hPa NW 2.6 km/h 10.3 km/h 89 % 0 mm 0 W/m2
17:30 -14.3 °C -15.1 °C 34831.8 hPa Calm   10.3 km/h 90 % 0 mm 0 W/m2
17:35 -14.3 °C -15.1 °C 34831.8 hPa North 2.6 km/h 12.9 km/h 90 % 0 mm 0 W/m2
17:40 -14.3 °C -15.1 °C 34831.8 hPa North 2.6 km/h 12.9 km/h 90 % 0 mm 0 W/m2
17:45 -14.3 °C -15.3 °C 34831.8 hPa NNW 7.7 km/h 12.9 km/h 89 % 0 mm 0 W/m2
17:50 -14.3 °C -15.2 °C 34831.8 hPa NW 5.1 km/h 12.9 km/h 90 % 0 mm 0 W/m2
17:55 -14.3 °C -15.2 °C 34831.8 hPa NNW 7.7 km/h 15.6 km/h 90 % 0 mm 0 W/m2
18:00 -14.3 °C -15.2 °C 34831.8 hPa Calm   15.6 km/h 89 % 0 mm 0 W/m2
18:05 -14.3 °C -15.3 °C 34831.8 hPa NNW 5.1 km/h 10.3 km/h 89 % 0 mm 0 W/m2
18:10 -14.4 °C -15.2 °C 34831.8 hPa NW 10.3 km/h 12.9 km/h 90 % 0 mm 0 W/m2
18:15 -14.4 °C -15.3 °C 34831.8 hPa NW 5.1 km/h 12.9 km/h 90 % 0 mm 0 W/m2
18:20 -14.4 °C -15.3 °C 34831.8 hPa Calm   12.9 km/h 90 % 0 mm 0 W/m2
18:25 -14.4 °C -15.2 °C 34831.8 hPa NW 2.6 km/h 10.3 km/h 90 % 0 mm 0 W/m2
18:30 -14.4 °C -15.2 °C 34831.8 hPa NNW 7.7 km/h 15.6 km/h 90 % 0 mm 0 W/m2
18:35 -14.3 °C -15.3 °C 34831.8 hPa WNW 2.6 km/h 15.6 km/h 89 % 0 mm 0 W/m2
18:40 -14.3 °C -15.2 °C 34831.8 hPa WNW 7.7 km/h 15.6 km/h 89 % 0 mm 0 W/m2
18:45 -14.3 °C -15.3 °C 34831.8 hPa NW 7.7 km/h 15.6 km/h 88 % 0 mm 0 W/m2
18:50 -14.3 °C -15.3 °C 34831.8 hPa Calm   12.9 km/h 88 % 0 mm 0 W/m2
18:55 -14.3 °C -15.2 °C 34831.8 hPa WNW 5.1 km/h 12.9 km/h 89 % 0 mm 0 W/m2
19:00 -14.3 °C -15.3 °C 34831.8 hPa NW 2.6 km/h 10.3 km/h 89 % 0 mm 0 W/m2
19:10 -14.3 °C -15.3 °C 34831.8 hPa NW 10.3 km/h 12.9 km/h 89 % 0 mm 0 W/m2
19:15 -14.3 °C -15.3 °C 34831.8 hPa NW 2.6 km/h 12.9 km/h 89 % 0 mm 0 W/m2
19:20 -14.3 °C -15.3 °C 34831.8 hPa NW 5.1 km/h 10.3 km/h 89 % 0 mm 0 W/m2
19:25 -14.3 °C -15.3 °C 34831.8 hPa NW 7.7 km/h 12.9 km/h 89 % 0 mm 0 W/m2
19:30 -14.3 °C -15.3 °C 34831.8 hPa NW 10.3 km/h 12.9 km/h 89 % 0 mm 0 W/m2
19:35 -14.3 °C -15.2 °C 34831.8 hPa Calm   12.9 km/h 89 % 0 mm 0 W/m2
19:40 -14.3 °C -15.3 °C 34831.8 hPa NNW 5.1 km/h 12.9 km/h 88 % 0 mm 0 W/m2
19:45 -14.3 °C -15.3 °C 34841.9 hPa NNW 2.6 km/h 12.9 km/h 89 % 0 mm 0 W/m2
19:50 -14.3 °C -15.3 °C 34841.9 hPa WNW 5.1 km/h 10.3 km/h 89 % 0 mm 0 W/m2
19:55 -14.3 °C -15.2 °C 34841.9 hPa Calm   10.3 km/h 89 % 0 mm 0 W/m2
20:00 -14.3 °C -15.3 °C 34841.9 hPa NW 5.1 km/h 12.9 km/h 89 % 0 mm 0 W/m2
20:05 -14.3 °C -15.3 °C 34841.9 hPa NW 5.1 km/h 12.9 km/h 89 % 0 mm 0 W/m2
20:10 -14.3 °C -15.3 °C 34841.9 hPa WNW 10.3 km/h 15.6 km/h 89 % 0 mm 0 W/m2
20:15 -14.2 °C -15.3 °C 34841.9 hPa WNW 5.1 km/h 15.6 km/h 88 % 0 mm 0 W/m2
20:20 -14.2 °C -15.3 °C 34841.9 hPa WNW 2.6 km/h 12.9 km/h 88 % 0 mm 0 W/m2
20:25 -14.3 °C -15.2 °C 34841.9 hPa NNW 5.1 km/h 12.9 km/h 89 % 0 mm 0 W/m2
20:30 -14.3 °C -15.2 °C 34841.9 hPa Calm   12.9 km/h 89 % 0 mm 0 W/m2
20:35 -14.3 °C -15.2 °C 34841.9 hPa WNW 5.1 km/h 12.9 km/h 89 % 0 mm 0 W/m2
20:40 -14.3 °C -15.2 °C 34841.9 hPa Calm   12.9 km/h 89 % 0 mm 0 W/m2
20:45 -14.3 °C -15.2 °C 34841.9 hPa WNW 7.7 km/h 12.9 km/h 89 % 0 mm 0 W/m2
20:50 -14.3 °C -15.2 °C 34841.9 hPa NW 5.1 km/h 12.9 km/h 89 % 0 mm 0 W/m2
20:55 -14.3 °C -15.2 °C 34841.9 hPa NW 10.3 km/h 12.9 km/h 89 % 0 mm 0 W/m2
21:00 -14.3 °C -15.2 °C 34841.9 hPa WNW 7.7 km/h 12.9 km/h 89 % 0 mm 0 W/m2
21:05 -14.3 °C -15.3 °C 34841.9 hPa NW 5.1 km/h 10.3 km/h 88 % 0 mm 0 W/m2
21:10 -14.3 °C -15.2 °C 34841.9 hPa West 7.7 km/h 10.3 km/h 89 % 0 mm 0 W/m2
21:15 -14.3 °C -15.2 °C 34841.9 hPa WNW 5.1 km/h 10.3 km/h 89 % 0 mm 0 W/m2
21:25 -14.3 °C -15.3 °C 34841.9 hPa Calm   15.6 km/h 89 % 0 mm 0 W/m2
21:30 -14.3 °C -15.2 °C 34841.9 hPa NW 2.6 km/h 7.7 km/h 90 % 0 mm 0 W/m2
21:35 -14.4 °C -15.2 °C 34841.9 hPa Calm   7.7 km/h 90 % 0 mm 0 W/m2
21:40 -14.4 °C -15.2 °C 34841.9 hPa Calm   7.7 km/h 90 % 0 mm 0 W/m2
21:45 -14.3 °C -15.2 °C 34841.9 hPa NW 5.1 km/h 7.7 km/h 90 % 0 mm 0 W/m2
21:50 -14.4 °C -15.3 °C 34841.9 hPa NNW 5.1 km/h 10.3 km/h 90 % 0 mm 0 W/m2
22:00 -14.4 °C -15.2 °C 34841.9 hPa NNW 15.6 km/h 15.6 km/h 91 % 0 mm 0 W/m2
22:05 -14.4 °C -15.2 °C 34852.1 hPa Calm   15.6 km/h 90 % 0 mm 0 W/m2
22:10 -14.3 °C -15.3 °C 34852.1 hPa NW 2.6 km/h 15.6 km/h 89 % 0 mm 0 W/m2
22:15 -14.3 °C -15.3 °C 34852.1 hPa Calm   18.2 km/h 89 % 0 mm 0 W/m2
22:20 -14.3 °C -15.3 °C 34852.1 hPa North 5.1 km/h 18.2 km/h 89 % 0 mm 0 W/m2
22:25 -14.3 °C -15.3 °C 34852.1 hPa North 2.6 km/h 12.9 km/h 89 % 0 mm 0 W/m2
22:30 -14.4 °C -15.3 °C 34852.1 hPa North 5.1 km/h 12.9 km/h 89 % 0 mm 0 W/m2
22:35 -14.4 °C -15.3 °C 34852.1 hPa North 2.6 km/h 12.9 km/h 89 % 0 mm 0 W/m2
22:40 -14.4 °C -15.4 °C 34852.1 hPa Calm   10.3 km/h 89 % 0 mm 0 W/m2
22:45 -14.4 °C -15.4 °C 34852.1 hPa North 2.6 km/h 10.3 km/h 88 % 0 mm 0 W/m2
22:50 -14.5 °C -15.4 °C 34865.6 hPa Calm   7.7 km/h 89 % 0 mm 0 W/m2
22:55 -14.4 °C -15.3 °C 34865.6 hPa NNW 5.1 km/h 7.7 km/h 89 % 0 mm 0 W/m2
23:05 -14.4 °C -15.4 °C 34865.6 hPa NW 2.6 km/h 7.7 km/h 88 % 0 mm 0 W/m2
23:10 -14.4 °C -15.4 °C 34865.6 hPa NW 5.1 km/h 7.7 km/h 89 % 0 mm 0 W/m2
23:15 -14.5 °C -15.4 °C 34865.6 hPa Calm   7.7 km/h 89 % 0 mm 0 W/m2
23:20 -14.6 °C -15.4 °C 34865.6 hPa Calm   7.7 km/h 90 % 0 mm 0 W/m2
23:25 -14.6 °C -15.4 °C 34865.6 hPa Calm   2.6 km/h 90 % 0 mm 0 W/m2
23:30 -14.6 °C -15.4 °C 34865.6 hPa Calm     91 % 0 mm 0 W/m2
23:35 -14.7 °C -15.4 °C 34865.6 hPa Calm     91 % 0 mm 0 W/m2
23:40 -14.7 °C -15.4 °C 34865.6 hPa Calm     91 % 0 mm 0 W/m2
23:45 -14.7 °C -15.3 °C 34865.6 hPa Calm     92 % 0 mm 0 W/m2
Avec l'autorisation de Weather Underground - 1.75 mb